Time;durP1;ratioP1;P1;durP2;ratioP2;P2;SDS_P1;SDS_P2;PMS_P1;PMS_P2;Temp;Humidity;BMP_temperature;BMP_pressure;BME280_temperature;BME280_humidity;BME280_pressure;Samples;Min_cycle;Max_cycle;Signal;HPM_P1;HPM_P2
2023/04/22 00:00:17;;;;;;;26.37;16.97;;;9.70;99.90;;;;;;5045965;28;20187;-65
2023/04/22 00:02:43;;;;;;;23.30;15.33;;;9.80;99.90;;;;;;5054422;28;20352;-65
2023/04/22 00:05:12;;;;;;;24.20;16.50;;;9.90;99.90;;;;;;5051042;28;20221;-65
2023/04/22 00:07:39;;;;;;;26.03;16.73;;;9.80;99.90;;;;;;5054020;28;20194;-66
2023/04/22 00:10:06;;;;;;;21.10;14.83;;;9.90;99.90;;;;;;5054408;28;20193;-64
2023/04/22 00:12:33;;;;;;;20.23;14.37;;;10.00;99.90;;;;;;5050890;28;20178;-64
2023/04/22 00:14:59;;;;;;;22.77;14.57;;;9.90;99.90;;;;;;5047751;28;20200;-65
2023/04/22 00:17:24;;;;;;;26.07;14.20;;;9.90;99.90;;;;;;5055053;28;20225;-64
2023/04/22 00:19:50;;;;;;;27.57;15.47;;;9.90;99.90;;;;;;5044225;28;20243;-64
2023/04/22 00:22:16;;;;;;;26.33;16.53;;;9.80;99.90;;;;;;5050408;28;20218;-65
2023/04/22 00:24:42;;;;;;;23.50;15.53;;;9.90;99.90;;;;;;5055278;28;20194;-65
2023/04/22 00:27:08;;;;;;;22.93;16.07;;;9.90;99.90;;;;;;5056546;28;20587;-65
2023/04/22 00:29:34;;;;;;;22.63;14.80;;;9.80;99.90;;;;;;5051086;28;20190;-65
2023/04/22 00:31:59;;;;;;;26.07;15.90;;;9.70;99.90;;;;;;5045481;28;20604;-65
2023/04/22 00:34:25;;;;;;;26.50;15.33;;;9.60;99.90;;;;;;5066966;28;20182;-64
2023/04/22 00:36:51;;;;;;;25.67;15.63;;;9.70;99.90;;;;;;5055116;28;20647;-64
2023/04/22 00:39:16;;;;;;;27.50;16.23;;;9.60;99.90;;;;;;5048190;28;20194;-64
2023/04/22 00:41:42;;;;;;;23.10;14.13;;;9.60;99.90;;;;;;5053646;28;20178;-64
2023/04/22 00:44:10;;;;;;;23.07;16.27;;;9.70;99.90;;;;;;5054628;28;20210;-65
2023/04/22 00:46:37;;;;;;;23.87;15.23;;;9.80;99.90;;;;;;5042578;28;20190;-65
2023/04/22 00:49:04;;;;;;;20.57;14.17;;;9.70;99.90;;;;;;5054747;28;20193;-64
2023/04/22 00:51:31;;;;;;;25.30;15.67;;;9.80;99.90;;;;;;5053012;28;20186;-65
2023/04/22 00:53:56;;;;;;;25.80;16.87;;;9.80;99.90;;;;;;5053701;28;20201;-64
2023/04/22 00:56:25;;;;;;;24.83;15.27;;;9.80;99.90;;;;;;5045848;28;20190;-65
2023/04/22 00:58:52;;;;;;;22.53;13.73;;;9.70;99.90;;;;;;5052322;28;20174;-65
2023/04/22 01:01:18;;;;;;;26.67;15.67;;;9.70;99.90;;;;;;5055001;28;20213;-65
2023/04/22 01:03:46;;;;;;;20.50;13.97;;;9.70;99.90;;;;;;5043060;28;20296;-65
2023/04/22 01:06:12;;;;;;;24.33;14.63;;;9.60;99.90;;;;;;5054610;28;20251;-64
2023/04/22 01:08:39;;;;;;;27.27;16.80;;;9.40;99.90;;;;;;5052734;28;20544;-64
2023/04/22 01:11:05;;;;;;;24.47;16.33;;;9.40;99.90;;;;;;5054215;28;20578;-64
2023/04/22 01:13:31;;;;;;;30.00;17.27;;;9.30;99.90;;;;;;5054471;28;20240;-65
2023/04/22 01:15:59;;;;;;;25.17;15.73;;;9.30;99.90;;;;;;5049183;28;20191;-65
2023/04/22 01:18:25;;;;;;;27.17;15.43;;;9.40;99.90;;;;;;5046743;28;20230;-65
2023/04/22 01:20:52;;;;;;;24.57;13.73;;;9.40;99.90;;;;;;5035174;28;20546;-65
2023/04/22 01:23:21;;;;;;;27.10;16.13;;;9.40;99.90;;;;;;5043923;28;20674;-64
2023/04/22 01:25:47;;;;;;;23.23;15.03;;;9.40;99.90;;;;;;5050499;28;20190;-65
2023/04/22 01:28:15;;;;;;;22.90;15.13;;;9.40;99.90;;;;;;5047357;28;20305;-65
2023/04/22 01:30:41;;;;;;;26.10;16.40;;;9.40;99.90;;;;;;5039711;28;20269;-64
2023/04/22 01:33:08;;;;;;;23.90;14.43;;;9.40;99.90;;;;;;5050388;28;20186;-65
2023/04/22 01:35:35;;;;;;;29.33;15.63;;;9.40;99.90;;;;;;5063308;28;20202;-65
2023/04/22 01:38:06;;;;;;;26.03;15.93;;;9.40;99.90;;;;;;5042284;28;20611;-65
2023/04/22 01:40:33;;;;;;;22.83;15.07;;;9.40;99.90;;;;;;5047432;28;20218;-66
2023/04/22 01:42:59;;;;;;;23.17;15.30;;;9.40;99.90;;;;;;5052622;28;20186;-65
2023/04/22 01:45:26;;;;;;;24.13;15.00;;;9.40;99.90;;;;;;5046918;28;21935;-65
2023/04/22 01:47:52;;;;;;;21.40;14.77;;;9.40;99.90;;;;;;5046511;28;20683;-66
2023/04/22 01:50:18;;;;;;;24.97;14.77;;;9.40;99.90;;;;;;5052071;28;20186;-65
2023/04/22 01:52:44;;;;;;;24.50;15.67;;;9.30;99.90;;;;;;5044625;28;20206;-64
2023/04/22 01:55:10;;;;;;;24.83;14.13;;;9.30;99.90;;;;;;5053291;28;20186;-65
2023/04/22 01:57:35;;;;;;;22.57;14.33;;;9.30;99.90;;;;;;5053489;28;20186;-65
2023/04/22 02:00:02;;;;;;;23.30;16.10;;;9.40;99.90;;;;;;5040529;28;20243;-64
2023/04/22 02:02:27;;;;;;;24.33;14.67;;;9.40;99.90;;;;;;5044654;28;20751;-65
2023/04/22 02:04:53;;;;;;;23.10;14.97;;;9.30;99.90;;;;;;5053657;28;20351;-65
2023/04/22 02:07:18;;;;;;;23.13;15.20;;;9.40;99.90;;;;;;5044595;28;20273;-65
2023/04/22 02:09:44;;;;;;;24.57;15.20;;;9.40;99.90;;;;;;5051955;28;20197;-65
2023/04/22 02:12:10;;;;;;;26.67;14.83;;;9.40;99.90;;;;;;5053344;28;20198;-65
2023/04/22 02:14:36;;;;;;;21.93;14.47;;;9.40;99.90;;;;;;5053222;28;20190;-65
2023/04/22 02:17:02;;;;;;;20.87;14.07;;;9.40;99.90;;;;;;5048225;28;20549;-64
2023/04/22 02:19:28;;;;;;;22.00;15.13;;;9.40;99.90;;;;;;5040467;28;20648;-65
2023/04/22 02:21:53;;;;;;;26.10;15.10;;;9.40;99.90;;;;;;5030149;28;20189;-64
2023/04/22 02:24:19;;;;;;;24.17;14.60;;;9.40;99.90;;;;;;5067488;28;20751;-65
2023/04/22 02:26:46;;;;;;;24.80;14.20;;;9.40;99.90;;;;;;5053058;28;20263;-65
2023/04/22 02:29:12;;;;;;;21.97;14.10;;;9.40;99.90;;;;;;5052973;28;20532;-65
2023/04/22 02:31:37;;;;;;;24.50;15.80;;;9.40;99.90;;;;;;5041984;28;20197;-65
2023/04/22 02:34:03;;;;;;;19.00;13.50;;;9.30;99.90;;;;;;5053095;28;20728;-64
2023/04/22 02:36:30;;;;;;;26.93;14.60;;;9.40;99.90;;;;;;5051500;28;20185;-64
2023/04/22 02:38:56;;;;;;;23.47;14.10;;;9.40;99.90;;;;;;5052240;28;20182;-65
2023/04/22 02:41:22;;;;;;;21.67;13.37;;;9.50;99.90;;;;;;5044437;28;20201;-65
2023/04/22 02:43:47;;;;;;;21.20;13.87;;;9.50;99.90;;;;;;5049915;28;20278;-65
2023/04/22 02:46:15;;;;;;;21.27;13.30;;;9.50;99.90;;;;;;5047633;28;20194;-65
2023/04/22 02:48:41;;;;;;;27.63;15.77;;;9.20;99.90;;;;;;5047421;28;20186;-64
2023/04/22 02:51:07;;;;;;;20.47;13.40;;;9.10;99.90;;;;;;5052001;28;20185;-65
2023/04/22 02:53:32;;;;;;;24.53;14.93;;;9.00;99.90;;;;;;5052777;28;20190;-65
2023/04/22 02:55:58;;;;;;;30.00;16.57;;;9.00;99.90;;;;;;5052474;28;20208;-65
2023/04/22 02:58:25;;;;;;;32.03;16.80;;;8.90;99.90;;;;;;5038566;28;20205;-65
2023/04/22 03:00:51;;;;;;;23.77;15.20;;;9.00;99.90;;;;;;5038860;28;20187;-64
2023/04/22 03:03:17;;;;;;;22.20;14.63;;;9.20;99.90;;;;;;5051575;28;20213;-65
2023/04/22 03:05:42;;;;;;;26.00;15.63;;;9.10;99.90;;;;;;5038798;28;20206;-65
2023/04/22 03:08:08;;;;;;;23.43;14.90;;;9.00;99.90;;;;;;5041166;28;20236;-65
2023/04/22 03:10:34;;;;;;;23.83;14.23;;;8.80;99.90;;;;;;5052406;28;20263;-65
2023/04/22 03:13:00;;;;;;;23.60;15.10;;;8.70;99.90;;;;;;5041054;28;20186;-65
2023/04/22 03:15:25;;;;;;;30.30;16.90;;;8.70;99.90;;;;;;5051117;28;20185;-64
2023/04/22 03:17:51;;;;;;;24.27;15.17;;;8.30;99.90;;;;;;5045615;28;20234;-64
2023/04/22 03:20:17;;;;;;;28.10;16.90;;;8.20;99.90;;;;;;5047579;28;20196;-64
2023/04/22 03:22:43;;;;;;;26.37;15.40;;;8.30;99.90;;;;;;5052002;28;20221;-64
2023/04/22 03:25:10;;;;;;;26.20;15.83;;;8.40;99.90;;;;;;5045724;28;20279;-64
2023/04/22 03:27:36;;;;;;;29.40;17.80;;;8.40;99.90;;;;;;5042278;28;20187;-65
2023/04/22 03:30:02;;;;;;;32.33;17.43;;;8.40;99.90;;;;;;5049753;28;20237;-65
2023/04/22 03:32:28;;;;;;;30.00;18.10;;;8.50;99.90;;;;;;5083893;28;20186;-65
2023/04/22 03:34:54;;;;;;;28.47;17.17;;;8.50;99.90;;;;;;5052084;28;20197;-66
2023/04/22 03:37:19;;;;;;;28.07;16.90;;;8.60;99.90;;;;;;5050157;28;20189;-65
2023/04/22 03:39:45;;;;;;;26.97;17.43;;;8.70;99.90;;;;;;5034541;28;20270;-64
2023/04/22 03:42:13;;;;;;;33.27;19.10;;;8.60;99.90;;;;;;5045777;28;20210;-65
2023/04/22 03:44:38;;;;;;;31.60;18.67;;;8.50;99.90;;;;;;5044393;28;20212;-64
2023/04/22 03:47:04;;;;;;;32.17;18.10;;;8.50;99.90;;;;;;5038242;28;20195;-66
2023/04/22 03:49:30;;;;;;;33.27;18.43;;;8.60;99.90;;;;;;5050971;28;20200;-64
2023/04/22 03:51:56;;;;;;;28.23;17.07;;;8.70;99.90;;;;;;5051789;28;20198;-64
2023/04/22 03:54:22;;;;;;;28.10;16.53;;;8.70;99.90;;;;;;5041246;28;20186;-64
2023/04/22 03:56:47;;;;;;;34.80;20.27;;;8.80;99.90;;;;;;5051227;28;20634;-64
2023/04/22 03:59:13;;;;;;;34.87;19.53;;;8.80;99.90;;;;;;5051647;28;20194;-64
2023/04/22 04:01:39;;;;;;;32.27;18.60;;;8.80;99.90;;;;;;5042325;28;20713;-64
2023/04/22 04:04:04;;;;;;;32.23;19.60;;;8.90;99.90;;;;;;5046965;28;20209;-64
2023/04/22 04:06:30;;;;;;;31.67;18.27;;;8.60;99.90;;;;;;5051685;28;20197;-63
2023/04/22 04:08:57;;;;;;;33.30;17.67;;;8.70;99.90;;;;;;5051675;28;20182;-64
2023/04/22 04:11:23;;;;;;;32.70;18.70;;;8.70;99.90;;;;;;5046111;28;20268;-64
2023/04/22 04:13:48;;;;;;;28.57;17.50;;;8.70;99.90;;;;;;5042724;28;20633;-64
2023/04/22 04:16:15;;;;;;;33.13;17.83;;;8.80;99.90;;;;;;5048104;28;20186;-64
2023/04/22 04:18:41;;;;;;;32.37;17.07;;;8.80;99.90;;;;;;5051358;28;20605;-64
2023/04/22 04:21:06;;;;;;;31.77;18.27;;;8.80;99.90;;;;;;5055892;28;20206;-64
2023/04/22 04:23:32;;;;;;;37.93;18.80;;;8.90;99.90;;;;;;5046489;28;20580;-65
2023/04/22 04:26:01;;;;;;;28.73;17.83;;;8.90;99.90;;;;;;5076389;28;20194;-64
2023/04/22 04:28:31;;;;;;;34.00;17.70;;;8.90;99.90;;;;;;5047110;28;20248;-64
2023/04/22 04:30:58;;;;;;;26.47;16.00;;;9.00;99.90;;;;;;5040996;28;20202;-64
2023/04/22 04:33:24;;;;;;;28.93;16.50;;;9.00;99.90;;;;;;5042355;28;20194;-64
2023/04/22 04:35:51;;;;;;;33.67;17.07;;;9.10;99.90;;;;;;5045492;28;20673;-64
2023/04/22 04:38:17;;;;;;;33.37;18.17;;;9.00;99.90;;;;;;5055608;28;20221;-64
2023/04/22 04:40:44;;;;;;;33.57;19.30;;;9.10;99.90;;;;;;5054479;28;20186;-64
2023/04/22 04:43:11;;;;;;;32.50;18.77;;;9.00;99.90;;;;;;5055004;28;20201;-64
2023/04/22 04:45:38;;;;;;;36.33;18.73;;;9.00;99.90;;;;;;5046424;28;20186;-66
2023/04/22 04:48:05;;;;;;;32.10;18.60;;;9.00;99.90;;;;;;5052407;28;20547;-64
2023/04/22 04:50:32;;;;;;;36.80;18.83;;;9.00;99.90;;;;;;5041851;28;20195;-65
2023/04/22 04:52:57;;;;;;;31.97;18.07;;;9.00;99.90;;;;;;5048660;28;20570;-65
2023/04/22 04:55:23;;;;;;;34.03;17.00;;;8.90;99.90;;;;;;5037725;28;20214;-65
2023/04/22 04:57:49;;;;;;;31.70;19.57;;;8.90;99.90;;;;;;5037390;28;20631;-64
2023/04/22 05:00:15;;;;;;;32.00;19.73;;;8.70;99.90;;;;;;5044296;28;20182;-65
2023/04/22 05:02:40;;;;;;;32.57;17.67;;;8.60;99.90;;;;;;5052895;28;20197;-64
2023/04/22 05:05:07;;;;;;;36.53;19.93;;;8.50;99.90;;;;;;5049177;28;20213;-66
2023/04/22 05:07:33;;;;;;;32.47;18.73;;;8.50;99.90;;;;;;5052948;28;20193;-66
2023/04/22 05:09:59;;;;;;;27.10;17.13;;;8.60;99.90;;;;;;5039623;28;20191;-66
2023/04/22 05:12:25;;;;;;;31.20;17.87;;;8.70;99.90;;;;;;5047522;28;20190;-66
2023/04/22 05:14:50;;;;;;;31.90;18.43;;;8.80;99.90;;;;;;5052988;28;20218;-66
2023/04/22 05:17:16;;;;;;;33.63;18.13;;;9.00;99.90;;;;;;5045187;28;20212;-66
2023/04/22 05:19:45;;;;;;;29.53;18.57;;;9.20;99.90;;;;;;5050128;28;20186;-66
2023/04/22 05:22:10;;;;;;;34.90;19.40;;;9.30;99.90;;;;;;5054475;28;20190;-66
2023/04/22 05:24:36;;;;;;;31.90;19.13;;;9.30;99.90;;;;;;5053277;28;20221;-66
2023/04/22 05:27:02;;;;;;;33.27;18.43;;;9.40;99.90;;;;;;5052575;28;20185;-66
2023/04/22 05:29:28;;;;;;;34.97;19.53;;;9.50;99.90;;;;;;5050160;28;20190;-66
2023/04/22 05:31:53;;;;;;;34.57;21.03;;;9.50;99.90;;;;;;5051050;28;20196;-66
2023/04/22 05:34:19;;;;;;;30.57;18.43;;;9.50;99.90;;;;;;5081072;28;20198;-66
2023/04/22 05:36:45;;;;;;;38.50;20.33;;;9.40;99.90;;;;;;5048067;28;20188;-66
2023/04/22 05:39:11;;;;;;;38.43;22.17;;;9.30;99.90;;;;;;5074582;28;20244;-66
2023/04/22 05:41:37;;;;;;;37.83;20.33;;;9.30;99.90;;;;;;5050136;28;20244;-66
2023/04/22 05:44:03;;;;;;;33.80;20.20;;;9.60;99.90;;;;;;5076173;28;20605;-66
2023/04/22 05:46:29;;;;;;;36.07;19.13;;;9.90;99.90;;;;;;5052809;28;20194;-66
2023/04/22 05:48:55;;;;;;;33.93;19.53;;;9.80;99.90;;;;;;5044360;28;20187;-66
2023/04/22 05:51:22;;;;;;;33.40;18.53;;;9.90;99.90;;;;;;5051649;28;20187;-66
2023/04/22 05:53:48;;;;;;;32.70;19.83;;;10.10;99.90;;;;;;5038361;28;20282;-66
2023/04/22 05:56:14;;;;;;;36.45;19.75;;;10.30;99.90;;;;;;5053040;28;20710;-66
2023/04/22 05:58:39;;;;;;;34.43;18.83;;;10.40;99.90;;;;;;5049491;28;20243;-66
2023/04/22 06:01:05;;;;;;;36.03;20.05;;;10.50;99.90;;;;;;5077677;28;20190;-66
2023/04/22 06:03:31;;;;;;;34.63;19.58;;;10.70;99.90;;;;;;5045290;28;20670;-66
2023/04/22 06:05:57;;;;;;;35.17;19.90;;;10.70;99.90;;;;;;5053431;28;20285;-66
2023/04/22 06:08:22;;;;;;;39.20;21.25;;;10.70;99.90;;;;;;5053512;28;20213;-66
2023/04/22 06:10:49;;;;;;;39.75;20.42;;;10.50;99.90;;;;;;5053500;28;20194;-66
2023/04/22 06:13:14;;;;;;;36.35;21.00;;;10.30;99.90;;;;;;5049029;28;20186;-66
2023/04/22 06:15:40;;;;;;;34.67;20.60;;;10.50;99.90;;;;;;5051216;28;20540;-65
2023/04/22 06:18:06;;;;;;;33.53;20.17;;;10.50;99.90;;;;;;5052478;28;20260;-65
2023/04/22 06:20:31;;;;;;;33.13;17.00;;;10.20;99.90;;;;;;5051583;28;20186;-66
2023/04/22 06:22:57;;;;;;;34.03;19.92;;;10.10;99.90;;;;;;5053041;28;20521;-65
2023/04/22 06:25:23;;;;;;;35.70;20.20;;;10.00;99.90;;;;;;5068110;28;20572;-65
2023/04/22 06:27:49;;;;;;;27.85;16.48;;;10.20;99.90;;;;;;5053077;28;20190;-66
2023/04/22 06:30:15;;;;;;;31.88;16.60;;;10.60;99.90;;;;;;5050094;28;20186;-66
2023/04/22 06:32:40;;;;;;;29.38;18.27;;;10.80;99.90;;;;;;5044735;28;20189;-67
2023/04/22 06:35:07;;;;;;;28.60;18.05;;;11.20;99.90;;;;;;5053480;28;20198;-68
2023/04/22 06:37:32;;;;;;;32.33;18.00;;;11.50;99.90;;;;;;5045999;28;20634;-66
2023/04/22 06:39:58;;;;;;;30.95;17.98;;;11.60;99.90;;;;;;5032240;28;20200;-66
2023/04/22 06:42:24;;;;;;;31.77;18.08;;;11.60;99.90;;;;;;5047503;28;20221;-67
2023/04/22 06:44:49;;;;;;;33.95;19.48;;;11.50;99.90;;;;;;5051265;28;20202;-66
2023/04/22 06:47:15;;;;;;;34.30;18.15;;;11.30;99.90;;;;;;5052635;28;20213;-67
2023/04/22 06:49:42;;;;;;;29.50;17.52;;;11.50;99.90;;;;;;5052300;28;20185;-66
2023/04/22 06:52:07;;;;;;;28.83;17.23;;;11.60;99.90;;;;;;5052661;28;20266;-67
2023/04/22 06:54:33;;;;;;;31.63;17.20;;;11.40;99.90;;;;;;5052000;28;20273;-67
2023/04/22 06:56:59;;;;;;;26.42;17.33;;;11.50;99.90;;;;;;5046817;28;20186;-67
2023/04/22 06:59:24;;;;;;;30.23;17.58;;;11.60;99.90;;;;;;5051206;28;20586;-66
2023/04/22 07:01:50;;;;;;;31.05;16.92;;;11.70;99.90;;;;;;5046322;28;20183;-67
2023/04/22 07:04:15;;;;;;;30.25;17.08;;;11.90;99.90;;;;;;5048539;28;20521;-66
2023/04/22 07:06:42;;;;;;;27.35;16.63;;;12.00;99.90;;;;;;5052204;28;20209;-66
2023/04/22 07:09:08;;;;;;;26.17;18.00;;;12.00;99.90;;;;;;5040989;28;20185;-66
2023/04/22 07:11:34;;;;;;;28.45;16.02;;;11.80;99.90;;;;;;5052122;28;20193;-66
2023/04/22 07:13:59;;;;;;;31.05;17.58;;;11.80;99.90;;;;;;5083754;28;20201;-67
2023/04/22 07:16:26;;;;;;;28.48;16.23;;;11.80;99.90;;;;;;5052194;28;20212;-67
2023/04/22 07:18:51;;;;;;;36.08;20.60;;;11.50;99.90;;;;;;5048812;28;20258;-67
2023/04/22 07:21:17;;;;;;;29.23;17.45;;;11.90;99.90;;;;;;5055210;28;20620;-66
2023/04/22 07:23:43;;;;;;;31.15;17.00;;;12.00;99.90;;;;;;5049785;28;20544;-66
2023/04/22 07:26:08;;;;;;;30.08;16.90;;;12.10;99.90;;;;;;5050222;28;20204;-67
2023/04/22 07:28:34;;;;;;;30.95;17.17;;;12.30;99.90;;;;;;5051896;28;20189;-66
2023/04/22 07:31:00;;;;;;;29.50;17.08;;;12.30;99.90;;;;;;5051353;28;20178;-67
2023/04/22 07:33:26;;;;;;;31.88;17.77;;;12.00;99.90;;;;;;5038050;28;20217;-67
2023/04/22 07:35:52;;;;;;;23.52;17.10;;;11.60;99.90;;;;;;5045753;28;20190;-67
2023/04/22 07:38:17;;;;;;;27.10;16.98;;;11.60;99.90;;;;;;5049498;28;20224;-68
2023/04/22 07:40:43;;;;;;;28.00;17.05;;;11.80;99.90;;;;;;5050738;28;20677;-67
2023/04/22 07:43:08;;;;;;;28.05;16.80;;;11.90;99.90;;;;;;5052004;28;20639;-67
2023/04/22 07:45:34;;;;;;;26.95;16.85;;;11.80;99.90;;;;;;5060469;28;20531;-67
2023/04/22 07:48:00;;;;;;;34.00;17.35;;;11.70;99.90;;;;;;5051518;28;20193;-68
2023/04/22 07:50:25;;;;;;;31.90;18.73;;;11.30;99.90;;;;;;5051133;28;20182;-67
2023/04/22 07:52:51;;;;;;;27.45;18.08;;;11.40;99.90;;;;;;5051999;28;20217;-66
2023/04/22 07:55:17;;;;;;;30.65;18.23;;;11.70;99.90;;;;;;5050464;28;20197;-68
2023/04/22 07:57:42;;;;;;;27.55;17.90;;;12.00;99.90;;;;;;5053434;28;20190;-66
2023/04/22 08:00:09;;;;;;;28.95;17.33;;;12.10;99.90;;;;;;5051360;28;20597;-67
2023/04/22 08:02:35;;;;;;;26.48;17.10;;;12.20;99.90;;;;;;5050175;28;20182;-66
2023/04/22 08:05:01;;;;;;;25.88;16.42;;;12.50;99.90;;;;;;5062556;28;20267;-68
2023/04/22 08:07:27;;;;;;;29.98;17.67;;;13.00;99.90;;;;;;5050246;28;20198;-69
2023/04/22 08:09:55;;;;;;;30.60;18.00;;;13.40;99.90;;;;;;5046991;28;20244;-70
2023/04/22 08:12:21;;;;;;;25.65;15.13;;;13.70;99.90;;;;;;5054337;28;20178;-70
2023/04/22 08:14:46;;;;;;;23.75;14.65;;;14.10;99.90;;;;;;5052942;28;20192;-74
2023/04/22 08:17:12;;;;;;;25.70;15.35;;;14.20;99.90;;;;;;5049491;28;20197;-66
2023/04/22 08:19:38;;;;;;;24.90;15.65;;;14.60;99.90;;;;;;5054982;28;20571;-70
2023/04/22 08:22:03;;;;;;;20.85;14.73;;;15.60;99.90;;;;;;5055358;28;20186;-70
2023/04/22 08:24:29;;;;;;;22.52;14.52;;;16.70;99.90;;;;;;5053661;28;20214;-70
2023/04/22 08:26:56;;;;;;;23.73;14.77;;;17.80;99.90;;;;;;5054188;28;20190;-70
2023/04/22 08:29:21;;;;;;;22.67;14.85;;;18.40;99.90;;;;;;5048352;28;20182;-70
2023/04/22 08:31:47;;;;;;;21.02;13.23;;;18.80;99.90;;;;;;5054374;28;20217;-71
2023/04/22 08:34:13;;;;;;;22.92;15.13;;;18.20;99.90;;;;;;5054994;28;20260;-70
2023/04/22 08:36:38;;;;;;;19.20;13.40;;;18.30;99.90;;;;;;5053956;28;20265;-70
2023/04/22 08:39:04;;;;;;;21.10;12.82;;;18.50;99.90;;;;;;5044573;28;20700;-71
2023/04/22 08:41:33;;;;;;;16.67;11.77;;;19.90;99.90;;;;;;5042250;28;20654;-68
2023/04/22 08:44:00;;;;;;;17.70;12.77;;;20.40;99.90;;;;;;5079873;28;20245;-73
2023/04/22 08:46:27;;;;;;;19.98;13.55;;;20.00;99.90;;;;;;5052910;28;20225;-70
2023/04/22 08:48:53;;;;;;;15.77;11.60;;;19.30;99.90;;;;;;5052451;28;20191;-69
2023/04/22 08:51:19;;;;;;;19.70;13.25;;;18.90;99.90;;;;;;5045100;28;20186;-70
2023/04/22 08:53:45;;;;;;;16.23;12.27;;;18.90;99.90;;;;;;5049817;28;20194;-69
2023/04/22 08:56:14;;;;;;;17.38;11.43;;;19.00;99.90;;;;;;5054122;28;20182;-69
2023/04/22 08:58:42;;;;;;;12.57;9.13;;;18.90;99.90;;;;;;5053374;28;20193;-69
2023/04/22 09:01:08;;;;;;;14.88;10.57;;;18.90;99.90;;;;;;5071916;28;20563;-69
2023/04/22 09:03:36;;;;;;;13.35;9.65;;;18.50;99.90;;;;;;5049885;28;20206;-66
2023/04/22 09:06:06;;;;;;;13.23;9.15;;;18.20;99.90;;;;;;5053745;28;20186;-68
2023/04/22 09:08:32;;;;;;;18.08;10.20;;;17.90;99.90;;;;;;5059405;28;20261;-68
2023/04/22 09:11:02;;;;;;;15.88;9.77;;;17.50;99.90;;;;;;5050311;28;20349;-67
2023/04/22 09:13:28;;;;;;;19.25;9.95;;;17.70;99.90;;;;;;5046995;28;20520;-68
2023/04/22 09:15:54;;;;;;;15.68;9.65;;;17.70;99.90;;;;;;5047077;28;20273;-69
2023/04/22 09:18:20;;;;;;;14.90;10.10;;;17.80;99.90;;;;;;5047227;28;20229;-70
2023/04/22 09:20:47;;;;;;;12.57;9.45;;;17.70;99.90;;;;;;5043519;28;20190;-69
2023/04/22 09:23:13;;;;;;;14.13;10.02;;;17.70;99.90;;;;;;5043361;28;20615;-70
2023/04/22 09:25:40;;;;;;;15.70;11.02;;;17.40;99.90;;;;;;5054297;28;20186;-72
2023/04/22 09:28:10;;;;;;;13.48;8.98;;;17.00;99.90;;;;;;5082296;28;20183;-73
2023/04/22 09:30:36;;;;;;;14.23;10.15;;;16.90;99.90;;;;;;5054218;28;20189;-72
2023/04/22 09:33:04;;;;;;;14.68;9.32;;;16.70;99.90;;;;;;5052595;28;20186;-72
2023/04/22 09:35:35;;;;;;;15.32;9.73;;;16.90;99.90;;;;;;5049093;28;20276;-67
2023/04/22 09:38:05;;;;;;;12.85;8.80;;;16.80;99.90;;;;;;5053192;28;20196;-67
2023/04/22 09:40:31;;;;;;;11.18;8.02;;;16.80;99.90;;;;;;5052595;28;20516;-67
2023/04/22 09:42:59;;;;;;;10.93;8.63;;;16.60;99.90;;;;;;5054105;28;20247;-67
2023/04/22 09:45:35;;;;;;;15.30;9.82;;;16.40;99.90;;;;;;5051185;28;20576;-68
2023/04/22 09:48:08;;;;;;;13.35;8.50;;;16.40;99.90;;;;;;5048795;28;20610;-68
2023/04/22 09:50:34;;;;;;;12.73;8.00;;;16.20;99.90;;;;;;5051543;28;20265;-67
2023/04/22 09:53:08;;;;;;;11.82;8.45;;;16.00;99.90;;;;;;5053859;28;20182;-66
2023/04/22 09:55:38;;;;;;;10.73;7.57;;;15.70;99.90;;;;;;5042587;28;20190;-65
2023/04/22 09:58:09;;;;;;;12.35;8.93;;;15.50;99.90;;;;;;5052577;28;20653;-66
2023/04/22 10:00:39;;;;;;;17.58;9.48;;;15.20;99.90;;;;;;5050916;28;20647;-66
2023/04/22 10:03:05;;;;;;;16.75;10.27;;;15.00;99.90;;;;;;5052105;28;20631;-65
2023/04/22 10:05:36;;;;;;;14.65;10.15;;;14.90;99.90;;;;;;5052090;28;20202;-66
2023/04/22 10:08:06;;;;;;;13.43;9.65;;;14.60;99.90;;;;;;5053370;28;20248;-65
2023/04/22 10:10:32;;;;;;;13.68;10.20;;;14.70;99.90;;;;;;5042928;28;20183;-66
2023/04/22 10:13:03;;;;;;;14.82;11.00;;;14.60;99.90;;;;;;5052175;28;20205;-65
2023/04/22 10:15:48;;;;;;;16.17;11.23;;;14.40;99.90;;;;;;5051261;28;20194;-65
2023/04/22 10:18:19;;;;;;;15.20;11.68;;;14.30;99.90;;;;;;5049309;28;20236;-65
2023/04/22 10:20:45;;;;;;;18.13;10.88;;;14.20;99.90;;;;;;5052752;28;20239;-65
2023/04/22 10:23:17;;;;;;;17.92;11.23;;;14.20;99.90;;;;;;5052597;28;20236;-65
2023/04/22 10:25:55;;;;;;;14.07;10.50;;;14.20;99.90;;;;;;5053073;28;20190;-68
2023/04/22 10:28:23;;;;;;;14.63;9.93;;;14.20;99.90;;;;;;5051097;28;20194;-66
2023/04/22 10:30:49;;;;;;;15.55;11.05;;;14.20;99.90;;;;;;5051616;28;20206;-67
2023/04/22 10:33:26;;;;;;;17.05;11.68;;;14.20;99.90;;;;;;5052764;28;20631;-66
2023/04/22 10:36:18;;;;;;;16.20;10.18;;;14.20;99.90;;;;;;5049234;28;20205;-65
2023/04/22 10:38:53;;;;;;;15.63;10.57;;;14.20;99.90;;;;;;5052486;28;20186;-64
2023/04/22 10:41:28;;;;;;;15.80;10.50;;;14.20;99.90;;;;;;5044183;28;20550;-65
2023/04/22 10:44:05;;;;;;;15.57;11.70;;;14.20;99.90;;;;;;5049358;28;20201;-64
2023/04/22 10:46:31;;;;;;;19.48;12.68;;;14.20;99.90;;;;;;5051227;28;20193;-65
2023/04/22 10:48:58;;;;;;;17.80;12.05;;;14.40;99.90;;;;;;5050839;28;20186;-63
2023/04/22 10:51:47;;;;;;;18.90;12.55;;;14.50;99.90;;;;;;5051980;28;20248;-66
2023/04/22 10:54:27;;;;;;;19.08;11.50;;;14.50;99.90;;;;;;5049607;28;20185;-66
2023/04/22 10:57:06;;;;;;;21.00;14.20;;;14.40;99.90;;;;;;5040637;28;20231;-64
2023/04/22 10:59:40;;;;;;;20.65;13.90;;;14.30;99.90;;;;;;5051909;28;20173;-65
2023/04/22 11:02:06;;;;;;;20.38;12.80;;;14.20;99.90;;;;;;5052722;28;20178;-64
2023/04/22 11:04:32;;;;;;;20.98;13.20;;;14.30;99.90;;;;;;5051924;28;20214;-64
2023/04/22 11:07:17;;;;;;;21.00;13.50;;;14.30;99.90;;;;;;5052274;28;20573;-64
2023/04/22 11:09:44;;;;;;;16.67;12.65;;;14.50;99.90;;;;;;5045602;28;20652;-64
2023/04/22 11:12:36;;;;;;;17.02;11.85;;;14.40;99.90;;;;;;5051929;28;20185;-64
2023/04/22 11:15:09;;;;;;;18.77;12.73;;;14.30;99.90;;;;;;5047354;28;20606;-63
2023/04/22 11:17:36;;;;;;;16.83;11.70;;;14.40;99.90;;;;;;5051225;28;20659;-66
2023/04/22 11:20:04;;;;;;;18.13;12.82;;;14.60;99.90;;;;;;5052127;28;20712;-65
2023/04/22 11:22:34;;;;;;;21.58;15.38;;;14.50;99.90;;;;;;5047919;28;20666;-66
2023/04/22 11:25:00;;;;;;;19.75;12.98;;;14.50;99.90;;;;;;5048618;28;20723;-66
2023/04/22 11:27:26;;;;;;;20.13;13.57;;;14.40;99.90;;;;;;5048456;28;20186;-66
2023/04/22 11:30:13;;;;;;;18.70;12.75;;;14.40;99.90;;;;;;5076273;28;20193;-65
2023/04/22 11:32:46;;;;;;;21.10;13.27;;;14.20;99.90;;;;;;5051887;28;20204;-65
2023/04/22 11:35:21;;;;;;;22.05;13.77;;;14.00;99.90;;;;;;5052006;28;20189;-65
2023/04/22 11:37:56;;;;;;;29.85;17.95;;;14.00;99.90;;;;;;5051155;28;20227;-63
2023/04/22 11:40:25;;;;;;;36.65;20.95;;;14.00;99.90;;;;;;5042801;28;20265;-64
2023/04/22 11:42:51;;;;;;;32.10;20.23;;;13.90;99.90;;;;;;5048281;28;20170;-64
2023/04/22 11:45:17;;;;;;;29.67;19.63;;;13.80;99.90;;;;;;5049648;28;20706;-64
2023/04/22 11:47:46;;;;;;;35.42;20.45;;;13.70;99.90;;;;;;5055419;28;20365;-65
2023/04/22 11:50:13;;;;;;;29.73;19.85;;;13.80;99.90;;;;;;5046706;28;20182;-65
2023/04/22 11:52:44;;;;;;;35.53;21.08;;;13.80;99.90;;;;;;5053002;28;20181;-63
2023/04/22 11:55:14;;;;;;;28.35;18.58;;;13.70;99.90;;;;;;5045324;28;20182;-64
2023/04/22 11:57:41;;;;;;;31.98;19.38;;;13.60;99.90;;;;;;5053452;28;20165;-65
2023/04/22 12:00:11;;;;;;;33.88;19.48;;;13.60;99.90;;;;;;5047524;28;20194;-64
2023/04/22 12:02:36;;;;;;;29.30;18.90;;;13.60;99.90;;;;;;5048407;28;20190;-64
2023/04/22 12:05:02;;;;;;;34.55;19.77;;;13.60;99.90;;;;;;5051187;28;20213;-64
2023/04/22 12:07:28;;;;;;;34.28;20.90;;;13.60;99.90;;;;;;5043466;28;20190;-65
2023/04/22 12:09:55;;;;;;;30.98;18.75;;;13.70;99.90;;;;;;5044029;28;20232;-65
2023/04/22 12:12:25;;;;;;;33.33;19.52;;;13.80;99.90;;;;;;5047902;28;20189;-64
2023/04/22 12:14:50;;;;;;;35.22;21.02;;;13.90;99.90;;;;;;5043023;28;20178;-64
2023/04/22 12:17:22;;;;;;;36.50;21.23;;;14.00;99.90;;;;;;5043765;28;20188;-64
2023/04/22 12:19:52;;;;;;;34.95;21.88;;;14.10;99.90;;;;;;5053431;28;20615;-65
2023/04/22 12:22:25;;;;;;;28.10;18.80;;;13.90;99.90;;;;;;5046635;28;20270;-65
2023/04/22 12:24:51;;;;;;;42.22;23.08;;;13.90;99.90;;;;;;5043727;28;20213;-64
2023/04/22 12:27:17;;;;;;;41.85;25.15;;;14.10;99.90;;;;;;5053770;28;20182;-64
2023/04/22 12:29:51;;;;;;;37.50;23.27;;;14.10;99.90;;;;;;5054925;28;20588;-64
2023/04/22 12:32:17;;;;;;;28.35;18.38;;;14.10;99.90;;;;;;5050053;28;20178;-65